createdAt,value
2022-08-10T18:33:32.544Z,1.10
2022-08-10T18:36:42.128Z,1.00
2022-08-10T18:39:48.572Z,0.77
2022-08-10T18:42:53.717Z,0.82
2022-08-10T18:45:59.405Z,0.80
2022-08-10T18:55:14.326Z,1.38
2022-08-10T18:58:46.560Z,1.77
2022-08-10T19:02:04.713Z,0.95
2022-08-10T19:05:31.061Z,1.00
2022-08-10T19:09:46.040Z,0.68
2022-08-10T19:16:07.610Z,0.70
2022-08-10T19:19:32.060Z,1.00
2022-08-10T19:22:46.269Z,0.85
2022-08-10T19:26:41.624Z,0.90
2022-08-10T19:30:09.819Z,1.00
2022-08-10T19:33:22.519Z,0.90
2022-08-10T19:36:34.843Z,0.80
2022-08-10T19:39:50.855Z,0.77
2022-08-10T19:43:09.253Z,0.80
2022-08-10T19:46:18.067Z,0.90
2022-08-10T19:49:37.654Z,0.90
2022-08-10T19:56:30.647Z,0.90
2022-08-10T20:00:17.275Z,0.98
2022-08-10T20:03:13.200Z,1.08
2022-08-10T20:06:22.529Z,1.00
2022-08-10T20:09:34.416Z,0.90
2022-08-10T20:15:59.083Z,2.80
2022-08-10T20:19:09.826Z,2.72
2022-08-10T20:22:28.944Z,2.13
2022-08-10T20:25:34.311Z,1.48
2022-08-10T20:28:41.700Z,1.20
2022-08-10T20:31:54.359Z,1.65
2022-08-10T20:35:04.920Z,1.27
2022-08-10T20:38:10.934Z,0.80
2022-08-10T20:41:24.655Z,1.15
2022-08-10T20:44:41.941Z,1.13
2022-08-10T20:47:54.163Z,1.20
2022-08-10T20:51:03.491Z,1.00
2022-08-10T20:54:12.229Z,0.85
2022-08-10T20:57:55.647Z,1.38
2022-08-10T21:01:05.992Z,0.90
2022-08-10T21:04:19.144Z,1.02
2022-08-10T21:08:01.358Z,1.10
2022-08-10T21:11:16.067Z,1.27
2022-08-10T21:14:38.814Z,1.00
2022-08-10T21:17:51.430Z,1.20
2022-08-10T21:25:07.435Z,1.08
2022-08-10T21:28:49.811Z,1.35
2022-08-10T21:32:07.130Z,1.27
2022-08-10T21:35:37.547Z,1.50
2022-08-10T21:38:51.755Z,1.38
2022-08-10T21:42:37.671Z,1.40
2022-08-10T21:46:16.321Z,1.27
2022-08-10T21:49:53.264Z,1.55
2022-08-10T21:53:43.783Z,1.15
2022-08-10T21:57:21.544Z,1.45
2022-08-10T22:00:44.867Z,1.40
2022-08-10T22:04:09.763Z,1.45
2022-08-10T22:07:38.482Z,1.83
2022-08-10T22:11:06.794Z,1.67
2022-08-10T22:14:33.541Z,1.63
2022-08-10T22:18:10.885Z,1.73
2022-08-10T22:21:48.529Z,1.50
2022-08-10T22:25:23.035Z,1.98
2022-08-10T22:28:43.706Z,1.75
2022-08-10T22:32:18.820Z,1.60
2022-08-10T22:36:11.360Z,1.58
2022-08-10T22:40:10.228Z,1.70
2022-08-10T22:43:35.776Z,1.70
2022-08-10T22:47:00.569Z,1.60
2022-08-10T22:50:07.780Z,1.73
2022-08-10T22:53:27.535Z,1.60
2022-08-10T22:56:56.064Z,1.50
2022-08-10T22:59:59.250Z,1.50
2022-08-10T23:03:12.033Z,1.85
2022-08-10T23:06:19.762Z,1.60
2022-08-10T23:09:23.940Z,1.70
2022-08-10T23:12:35.654Z,1.70
2022-08-10T23:15:59.145Z,1.60
2022-08-10T23:19:10.153Z,1.50
2022-08-10T23:22:15.526Z,1.58
2022-08-10T23:25:29.959Z,1.73
2022-08-10T23:28:58.093Z,1.38
2022-08-10T23:32:07.412Z,1.60
2022-08-10T23:36:27.798Z,1.70
2022-08-10T23:38:41.467Z,1.60
2022-08-10T23:41:45.193Z,1.50
2022-08-10T23:45:00.293Z,1.60
2022-08-10T23:48:04.119Z,1.50
2022-08-10T23:51:16.069Z,1.50
2022-08-10T23:54:27.549Z,1.50
2022-08-10T23:57:32.631Z,1.23
